Station Historical Data
Daily Summary for March 26, 2012 Units:  Metric    English   Both
« Previous Day
Next Day »
Daily Weekly Monthly Yearly Custom
  High: Low: Average:
Temperature: 24.2 °C 11.6 °C 17.7 °C
Dew Point: 14.6 °C 10 °C 11.8 °C
Humidity: 94% 44% 71%
Wind Speed: 17.7km/h 0km/h 5.6km/h
Wind Gust: 27.4km/h - -
Wind- - SSE
Pressure: 1019.2 hPa 1015.5 hPa -
Precipitation: 0 mm    
Historical Graphs
 
 
Tabular Data for March 26, 2012
Time Temperature Dew Point Pressure Wind Wind Speed Wind Gust Humidity Rainfall Rate (Hourly) Conditions
00:00 14.8 °C 11.9 °C 1015.8 hPa North 3.2 km/h 4.8 km/h 83% 0 mm
00:01 14.8 °C 11.9 °C 1015.8 hPa North 3.2 km/h 4.8 km/h 83% 0 mm
00:03 14.7 °C 11.9 °C 1015.8 hPa NNE 3.2 km/h 6.4 km/h 83% 0 mm
00:08 14.7 °C 11.8 °C 1015.8 hPa NNW 3.2 km/h 4.8 km/h 83% 0 mm
00:13 14.6 °C 11.7 °C 1015.8 hPa North 4.8 km/h 6.4 km/h 83% 0 mm
00:18 14.4 °C 11.8 °C 1015.8 hPa NNE 4.8 km/h 6.4 km/h 84% 0 mm
00:23 14.5 °C 11.8 °C 1015.8 hPa NNW 4.8 km/h 8 km/h 84% 0 mm
00:28 14.5 °C 11.8 °C 1015.8 hPa North 4.8 km/h 6.4 km/h 84% 0 mm
00:33 14.4 °C 11.8 °C 1015.8 hPa North 3.2 km/h 4.8 km/h 84% 0 mm
00:38 14.4 °C 11.7 °C 1015.8 hPa North 4.8 km/h 4.8 km/h 84% 0 mm
00:43 14.3 °C 11.6 °C 1015.8 hPa North 6.4 km/h 6.4 km/h 84% 0 mm
00:48 14.2 °C 11.7 °C 1015.5 hPa NNW 4.8 km/h 6.4 km/h 85% 0 mm
00:53 14.1 °C 11.6 °C 1015.5 hPa NNW 3.2 km/h 6.4 km/h 85% 0 mm
00:58 14.1 °C 11.6 °C 1015.5 hPa NNW 4.8 km/h 6.4 km/h 85% 0 mm
01:03 14.1 °C 11.6 °C 1015.5 hPa North 3.2 km/h 4.8 km/h 85% 0 mm
01:08 14.2 °C 11.7 °C 1015.5 hPa NNW 6.4 km/h 6.4 km/h 85% 0 mm
01:13 14.2 °C 11.7 °C 1015.5 hPa NNW 6.4 km/h 8 km/h 85% 0 mm
01:18 14.2 °C 11.7 °C 1015.8 hPa NNW 6.4 km/h 8 km/h 85% 0 mm
01:23 14.2 °C 11.7 °C 1015.5 hPa NNW 4.8 km/h 8 km/h 85% 0 mm
01:28 14.2 °C 11.7 °C 1015.8 hPa NW 4.8 km/h 6.4 km/h 85% 0 mm
01:33 14.2 °C 11.7 °C 1015.8 hPa NNW 3.2 km/h 6.4 km/h 85% 0 mm
01:38 14.3 °C 11.8 °C 1015.8 hPa NNW 1.6 km/h 6.4 km/h 85% 0 mm
01:43 14.2 °C 11.7 °C 1015.8 hPa North 3.2 km/h 4.8 km/h 85% 0 mm
01:48 14.1 °C 11.6 °C 1015.8 hPa Calm   3.2 km/h 85% 0 mm
01:53 13.9 °C 11.7 °C 1015.8 hPa Calm   1.6 km/h 86% 0 mm
01:58 13.8 °C 11.5 °C 1015.5 hPa Calm   1.6 km/h 86% 0 mm
02:03 13.7 °C 11.6 °C 1015.8 hPa NNE 1.6 km/h 1.6 km/h 87% 0 mm
02:08 13.6 °C 11.5 °C 1015.8 hPa Calm   1.6 km/h 87% 0 mm
02:13 13.4 °C 11.3 °C 1015.8 hPa Calm     87% 0 mm
02:18 13.2 °C 11.2 °C 1015.8 hPa Calm     88% 0 mm
02:23 13 °C 11.2 °C 1015.8 hPa Calm     89% 0 mm
02:28 13 °C 11.4 °C 1015.8 hPa Calm   1.6 km/h 90% 0 mm
02:33 13.1 °C 11.5 °C 1015.8 hPa Calm   1.6 km/h 90% 0 mm
02:39 13.1 °C 11.3 °C 1015.8 hPa Calm   1.6 km/h 89% 0 mm
02:44 13.1 °C 11.3 °C 1015.8 hPa Calm     89% 0 mm
02:49 12.9 °C 11.3 °C 1015.8 hPa Calm     90% 0 mm
02:54 12.8 °C 11.2 °C 1015.8 hPa Calm   1.6 km/h 90% 0 mm
02:59 12.8 °C 11.3 °C 1015.8 hPa Calm   1.6 km/h 91% 0 mm
03:04 12.8 °C 11.2 °C 1015.8 hPa North 1.6 km/h 1.6 km/h 90% 0 mm
03:09 12.8 °C 11.3 °C 1015.8 hPa North 1.6 km/h 1.6 km/h 91% 0 mm
03:14 12.7 °C 11.3 °C 1015.8 hPa North 1.6 km/h 1.6 km/h 91% 0 mm
03:19 12.5 °C 11.1 °C 1015.8 hPa Calm   1.6 km/h 91% 0 mm
03:24 12.4 °C 10.9 °C 1015.8 hPa North 1.6 km/h 1.6 km/h 91% 0 mm
03:29 12.3 °C 10.8 °C 1015.8 hPa Calm   1.6 km/h 91% 0 mm
03:34 12.2 °C 10.9 °C 1015.8 hPa North 1.6 km/h 1.6 km/h 92% 0 mm
03:39 12.3 °C 11 °C 1015.8 hPa Calm   3.2 km/h 92% 0 mm
03:44 12.3 °C 11 °C 1015.5 hPa Calm     92% 0 mm
03:49 12.3 °C 11.1 °C 1015.5 hPa NNE 1.6 km/h 1.6 km/h 92% 0 mm
03:54 12.4 °C 11.1 °C 1015.5 hPa North 1.6 km/h 3.2 km/h 92% 0 mm
03:59 12.4 °C 11.1 °C 1015.5 hPa NNW 1.6 km/h 3.2 km/h 92% 0 mm
04:04 12.4 °C 11.1 °C 1015.5 hPa NNW 1.6 km/h 1.6 km/h 92% 0 mm
04:09 12.3 °C 11.1 °C 1015.8 hPa Calm   1.6 km/h 92% 0 mm
04:14 12.2 °C 10.9 °C 1015.8 hPa North 1.6 km/h 1.6 km/h 92% 0 mm
04:19 12.2 °C 10.9 °C 1015.8 hPa NNW 1.6 km/h 4.8 km/h 92% 0 mm
04:24 12.2 °C 10.9 °C 1015.5 hPa North 1.6 km/h 4.8 km/h 92% 0 mm
04:29 12.1 °C 10.8 °C 1015.8 hPa NNW 1.6 km/h 3.2 km/h 92% 0 mm
04:34 12.1 °C 10.8 °C 1015.8 hPa NNW 1.6 km/h 3.2 km/h 92% 0 mm
04:39 11.8 °C 10.6 °C 1015.8 hPa NNW 1.6 km/h 1.6 km/h 92% 0 mm
04:44 11.7 °C 10.6 °C 1015.8 hPa NNW 1.6 km/h 1.6 km/h 93% 0 mm
04:50 11.8 °C 10.7 °C 1015.8 hPa NNW 1.6 km/h 1.6 km/h 93% 0 mm
04:55 11.7 °C 10.6 °C 1015.8 hPa NNW 1.6 km/h 1.6 km/h 93% 0 mm
05:00 11.6 °C 10.5 °C 1015.8 hPa NNW 1.6 km/h 1.6 km/h 93% 0 mm
05:05 11.6 °C 10.5 °C 1015.8 hPa NNW 1.6 km/h 1.6 km/h 93% 0 mm
05:10 11.6 °C 10.4 °C 1015.8 hPa NNW 1.6 km/h 1.6 km/h 93% 0 mm
05:15 11.6 °C 10.6 °C 1015.8 hPa NNE 1.6 km/h 3.2 km/h 94% 0 mm
05:20 11.6 °C 10.7 °C 1015.5 hPa NNE 1.6 km/h 1.6 km/h 94% 0 mm
05:25 11.7 °C 10.7 °C 1015.5 hPa NNW 3.2 km/h 3.2 km/h 94% 0 mm
05:30 11.8 °C 10.8 °C 1015.5 hPa NNW 1.6 km/h 3.2 km/h 94% 0 mm
05:35 11.8 °C 10.8 °C 1015.8 hPa North 3.2 km/h 3.2 km/h 94% 0 mm
05:40 11.8 °C 10.9 °C 1015.8 hPa North 3.2 km/h 3.2 km/h 94% 0 mm
05:45 11.8 °C 10.9 °C 1015.5 hPa North 3.2 km/h 4.8 km/h 94% 0 mm
05:50 11.8 °C 10.9 °C 1015.8 hPa NNW 3.2 km/h 4.8 km/h 94% 0 mm
05:55 11.8 °C 10.9 °C 1015.5 hPa North 1.6 km/h 3.2 km/h 94% 0 mm
06:00 11.8 °C 10.9 °C 1015.5 hPa North 1.6 km/h 3.2 km/h 94% 0 mm
06:05 11.8 °C 10.8 °C 1015.5 hPa North 3.2 km/h 3.2 km/h 94% 0 mm
06:06 11.8 °C 10.8 °C 1015.5 hPa North 3.2 km/h 3.2 km/h 94% 0 mm
06:11 11.8 °C 10.8 °C 1015.5 hPa NNW 3.2 km/h 4.8 km/h 94% 0 mm
06:16 11.8 °C 10.8 °C 1015.8 hPa NNW 3.2 km/h 6.4 km/h 94% 0 mm
06:21 11.7 °C 10.8 °C 1015.8 hPa North 6.4 km/h 6.4 km/h 94% 0 mm
06:26 11.7 °C 10.7 °C 1015.8 hPa NNW 6.4 km/h 6.4 km/h 94% 0 mm
06:31 11.6 °C 10.7 °C 1016.1 hPa NNW 3.2 km/h 8 km/h 94% 0 mm
06:36 11.6 °C 10.6 °C 1016.1 hPa NNW 3.2 km/h 6.4 km/h 94% 0 mm
06:41 11.6 °C 10.6 °C 1016.1 hPa NNW 3.2 km/h 4.8 km/h 94% 0 mm
06:46 11.6 °C 10.7 °C 1016.1 hPa NNW 3.2 km/h 4.8 km/h 94% 0 mm
06:51 11.6 °C 10.7 °C 1016.1 hPa North 1.6 km/h 3.2 km/h 94% 0 mm
06:56 11.7 °C 10.7 °C 1016.1 hPa NNE 1.6 km/h 3.2 km/h 94% 0 mm
07:01 11.7 °C 10.7 °C 1016.5 hPa NNW 3.2 km/h 4.8 km/h 94% 0 mm
07:06 11.7 °C 10.8 °C 1016.5 hPa NNW 3.2 km/h 4.8 km/h 94% 0 mm
07:11 11.7 °C 10.8 °C 1016.5 hPa North 1.6 km/h 3.2 km/h 94% 0 mm
07:16 11.7 °C 10.7 °C 1016.5 hPa North 3.2 km/h 3.2 km/h 94% 0 mm
07:21 11.7 °C 10.8 °C 1016.5 hPa North 1.6 km/h 3.2 km/h 94% 0 mm
07:26 11.8 °C 10.8 °C 1016.5 hPa NNE 3.2 km/h 3.2 km/h 94% 0 mm
07:32 11.8 °C 10.8 °C 1016.5 hPa North 3.2 km/h 4.8 km/h 94% 0 mm
07:37 11.8 °C 10.8 °C 1016.8 hPa North 3.2 km/h 6.4 km/h 94% 0 mm
07:42 11.7 °C 10.7 °C 1016.8 hPa North 3.2 km/h 4.8 km/h 94% 0 mm
07:47 11.7 °C 10.7 °C 1016.8 hPa North 3.2 km/h 6.4 km/h 94% 0 mm
07:52 11.6 °C 10.7 °C 1016.8 hPa NNW 3.2 km/h 6.4 km/h 94% 0 mm
07:57 11.6 °C 10.6 °C 1016.8 hPa NNW 4.8 km/h 4.8 km/h 94% 0 mm
08:02 11.6 °C 10.6 °C 1017.2 hPa North 3.2 km/h 6.4 km/h 94% 0 mm
08:07 11.6 °C 10.7 °C 1017.2 hPa North 3.2 km/h 6.4 km/h 94% 0 mm
08:12 11.8 °C 10.8 °C 1017.2 hPa North 3.2 km/h 4.8 km/h 94% 0 mm
08:17 11.9 °C 11 °C 1017.2 hPa NNW 1.6 km/h 4.8 km/h 94% 0 mm
08:22 12.2 °C 11.2 °C 1017.5 hPa North 4.8 km/h 6.4 km/h 94% 0 mm
08:27 12.4 °C 11.4 °C 1017.5 hPa North 3.2 km/h 4.8 km/h 94% 0 mm
08:32 12.6 °C 11.5 °C 1017.5 hPa North 4.8 km/h 6.4 km/h 93% 0 mm
08:37 12.8 °C 11.7 °C 1017.5 hPa NNW 4.8 km/h 6.4 km/h 93% 0 mm
08:42 13.1 °C 11.9 °C 1017.5 hPa NNW 6.4 km/h 9.7 km/h 93% 0 mm
08:47 13.3 °C 12 °C 1017.5 hPa NNW 4.8 km/h 8 km/h 92% 0 mm
08:52 13.5 °C 12.2 °C 1017.8 hPa NNW 6.4 km/h 9.7 km/h 92% 0 mm
08:57 13.7 °C 12.4 °C 1017.8 hPa NW 6.4 km/h 12.9 km/h 92% 0 mm
09:02 14 °C 12.6 °C 1017.8 hPa North 8 km/h 11.3 km/h 91% 0 mm
09:07 14.2 °C 12.8 °C 1017.8 hPa North 6.4 km/h 9.7 km/h 91% 0 mm
09:12 14.5 °C 12.9 °C 1017.8 hPa NNE 12.9 km/h 12.9 km/h 90% 0 mm
09:17 14.8 °C 13.2 °C 1018.2 hPa North 6.4 km/h 9.7 km/h 90% 0 mm
09:22 15 °C 13.2 °C 1018.2 hPa NNE 6.4 km/h 11.3 km/h 89% 0 mm
09:27 15.2 °C 13.4 °C 1018.2 hPa NNE 4.8 km/h 8 km/h 89% 0 mm
09:32 15.4 °C 13.2 °C 1018.2 hPa NNE 4.8 km/h 9.7 km/h 87% 0 mm
09:37 15.7 °C 13.6 °C 1018.2 hPa NNE 8 km/h 11.3 km/h 87% 0 mm
09:42 15.9 °C 13.6 °C 1018.5 hPa NE 4.8 km/h 14.5 km/h 86% 0 mm
09:47 16.1 °C 13.8 °C 1018.5 hPa NNE 8 km/h 11.3 km/h 86% 0 mm
09:53 16.4 °C 14.1 °C 1018.5 hPa North 4.8 km/h 8 km/h 86% 0 mm
09:58 16.7 °C 14.2 °C 1018.5 hPa NNE 4.8 km/h 9.7 km/h 85% 0 mm
10:03 17 °C 14.1 °C 1018.5 hPa NNW 6.4 km/h 9.7 km/h 83% 0 mm
10:08 17.2 °C 14.1 °C 1018.5 hPa NE 9.7 km/h 11.3 km/h 82% 0 mm
10:13 17.4 °C 13.9 °C 1018.8 hPa NNE 8 km/h 16.1 km/h 80% 0 mm
10:18 17.7 °C 13.8 °C 1018.8 hPa NNE 12.9 km/h 19.3 km/h 78% 0 mm
10:23 18 °C 14.1 °C 1018.8 hPa North 12.9 km/h 14.5 km/h 78% 0 mm
10:28 18.2 °C 14.1 °C 1018.8 hPa NE 14.5 km/h 19.3 km/h 77% 0 mm
10:33 18.4 °C 13.7 °C 1018.8 hPa NE 12.9 km/h 14.5 km/h 74% 0 mm
10:38 18.6 °C 14.3 °C 1018.8 hPa NNE 8 km/h 12.9 km/h 76% 0 mm
10:43 19 °C 13.8 °C 1018.8 hPa NE 9.7 km/h 11.3 km/h 72% 0 mm
10:48 19.2 °C 14.1 °C 1018.8 hPa NNE 14.5 km/h 14.5 km/h 72% 0 mm
10:53 19.2 °C 13.4 °C 1018.8 hPa NE 14.5 km/h 19.3 km/h 69% 0 mm
10:58 19.3 °C 13.7 °C 1018.8 hPa NE 16.1 km/h 16.1 km/h 70% 0 mm
11:03 19.3 °C 13.7 °C 1018.8 hPa NE 16.1 km/h 20.9 km/h 70% 0 mm
11:08 19.2 °C 13.2 °C 1018.8 hPa NE 14.5 km/h 24.1 km/h 68% 0 mm
11:13 19.3 °C 12.8 °C 1018.8 hPa ENE 14.5 km/h 19.3 km/h 66% 0 mm
11:18 19.4 °C 12.9 °C 1019.2 hPa NNE 8 km/h 27.4 km/h 66% 0 mm
11:23 19.5 °C 13 °C 1019.2 hPa NNE 12.9 km/h 17.7 km/h 66% 0 mm
11:28 19.7 °C 13.2 °C 1019.2 hPa NNE 17.7 km/h 19.3 km/h 66% 0 mm
11:34 19.8 °C 13 °C 1019.2 hPa NE 8 km/h 16.1 km/h 65% 0 mm
11:39 19.9 °C 12.9 °C 1019.2 hPa NE 8 km/h 19.3 km/h 64% 0 mm
11:44 20 °C 13.2 °C 1019.2 hPa NNE 12.9 km/h 19.3 km/h 65% 0 mm
11:49 20.1 °C 12.8 °C 1018.8 hPa North 16.1 km/h 17.7 km/h 63% 0 mm
11:54 20.2 °C 13.2 °C 1018.8 hPa East 14.5 km/h 19.3 km/h 64% 0 mm
11:59 20.3 °C 13.3 °C 1018.8 hPa NNE 9.7 km/h 16.1 km/h 64% 0 mm
12:05 20.3 °C 12.8 °C 1018.8 hPa NNE 11.3 km/h 19.3 km/h 62% 0 mm
12:10 20.2 °C 13.2 °C 1018.8 hPa NE 11.3 km/h 12.9 km/h 64% 0 mm
12:15 20.5 °C 13.4 °C 1018.8 hPa NNW 4.8 km/h 11.3 km/h 64% 0 mm
12:20 20.7 °C 13.2 °C 1018.8 hPa NE 4.8 km/h 12.9 km/h 62% 0 mm
12:25 20.7 °C 14.2 °C 1018.8 hPa NNE 12.9 km/h 14.5 km/h 66% 0 mm
12:30 20.5 °C 13 °C 1018.8 hPa NNE 9.7 km/h 19.3 km/h 62% 0 mm
12:35 20.5 °C 13.4 °C 1018.8 hPa NNW 6.4 km/h 16.1 km/h 64% 0 mm
12:40 20.7 °C 13.7 °C 1018.8 hPa NE 17.7 km/h 17.7 km/h 64% 0 mm
12:45 20.9 °C 13.6 °C 1018.8 hPa NE 9.7 km/h 17.7 km/h 63% 0 mm
12:50 21.1 °C 14.3 °C 1018.8 hPa North 8 km/h 9.7 km/h 65% 0 mm
12:55 21.2 °C 13.4 °C 1018.8 hPa North 17.7 km/h 17.7 km/h 61% 0 mm
13:00 21.1 °C 14.1 °C 1018.8 hPa North 11.3 km/h 17.7 km/h 64% 0 mm
13:05 20.8 °C 14 °C 1018.8 hPa NW 11.3 km/h 16.1 km/h 65% 0 mm
13:06 20.8 °C 14 °C 1018.8 hPa North 11.3 km/h 16.1 km/h 65% 0 mm
13:11 21 °C 13.7 °C 1018.8 hPa NE 9.7 km/h 14.5 km/h 63% 0 mm
13:16 21.4 °C 13.6 °C 1018.8 hPa ENE 8 km/h 16.1 km/h 61% 0 mm
13:21 21.7 °C 14.1 °C 1018.5 hPa NE 4.8 km/h 14.5 km/h 62% 0 mm
13:26 21.8 °C 13.4 °C 1018.5 hPa NE 12.9 km/h 22.5 km/h 59% 0 mm
13:31 21.7 °C 13.6 °C 1018.5 hPa North 6.4 km/h 14.5 km/h 60% 0 mm
13:36 22 °C 13.9 °C 1018.5 hPa NNE 11.3 km/h 14.5 km/h 60% 0 mm
13:41 21.9 °C 13.8 °C 1018.5 hPa NNW 8 km/h 17.7 km/h 60% 0 mm
13:46 21.8 °C 13.9 °C 1018.5 hPa NNE 8 km/h 14.5 km/h 61% 0 mm
13:51 22 °C 14.6 °C 1018.5 hPa NNE 12.9 km/h 12.9 km/h 63% 0 mm
13:56 22.1 °C 13.2 °C 1018.2 hPa NW 8 km/h 12.9 km/h 57% 0 mm
14:01 22.2 °C 14.1 °C 1018.5 hPa NNW 9.7 km/h 14.5 km/h 60% 0 mm
14:06 22.1 °C 13.9 °C 1018.2 hPa NNW 8 km/h 14.5 km/h 60% 0 mm
14:11 22.3 °C 13.6 °C 1018.2 hPa NW 12.9 km/h 19.3 km/h 58% 0 mm
14:16 22 °C 13.6 °C 1018.2 hPa NNW 6.4 km/h 11.3 km/h 59% 0 mm
14:21 22.4 °C 14.1 °C 1018.2 hPa NNE 14.5 km/h 16.1 km/h 59% 0 mm
14:26 22.4 °C 13.2 °C 1018.2 hPa NNE 4.8 km/h 11.3 km/h 56% 0 mm
14:31 22.6 °C 14.2 °C 1018.2 hPa East 1.6 km/h 6.4 km/h 59% 0 mm
14:37 22.8 °C 13.9 °C 1017.8 hPa North 9.7 km/h 11.3 km/h 57% 0 mm
14:42 22.9 °C 13.4 °C 1017.8 hPa NE 3.2 km/h 9.7 km/h 55% 0 mm
14:47 22.9 °C 14.3 °C 1017.8 hPa NW 8 km/h 16.1 km/h 58% 0 mm
14:52 23 °C 13.2 °C 1017.8 hPa NNE 9.7 km/h 19.3 km/h 54% 0 mm
14:57 23.1 °C 13.3 °C 1017.8 hPa North 6.4 km/h 12.9 km/h 54% 0 mm
15:02 23.3 °C 14.6 °C 1017.8 hPa North 11.3 km/h 12.9 km/h 58% 0 mm
15:07 23.4 °C 14.1 °C 1017.8 hPa North 11.3 km/h 16.1 km/h 56% 0 mm
15:12 23.1 °C 12.4 °C 1017.8 hPa NE 6.4 km/h 14.5 km/h 51% 0 mm
15:17 23.1 °C 13.9 °C 1017.5 hPa NNW 8 km/h 8 km/h 56% 0 mm
15:22 23.3 °C 13.7 °C 1017.5 hPa North 4.8 km/h 12.9 km/h 55% 0 mm
15:27 23.3 °C 13.5 °C 1017.5 hPa NNW 11.3 km/h 14.5 km/h 54% 0 mm
15:32 23.4 °C 13.3 °C 1017.5 hPa NNE 6.4 km/h 12.9 km/h 53% 0 mm
15:37 23.5 °C 13.4 °C 1017.2 hPa NNE 11.3 km/h 16.1 km/h 53% 0 mm
15:43 23.3 °C 13.2 °C 1017.2 hPa NNE 12.9 km/h 12.9 km/h 53% 0 mm
15:48 23.2 °C 13.3 °C 1017.2 hPa NNE 8 km/h 14.5 km/h 54% 0 mm
15:53 23.2 °C 13.1 °C 1017.2 hPa NNW 11.3 km/h 14.5 km/h 53% 0 mm
15:58 23.4 °C 13.3 °C 1016.8 hPa WNW 1.6 km/h 11.3 km/h 53% 0 mm
16:03 23.8 °C 13.3 °C 1016.8 hPa NNE 8 km/h 16.1 km/h 52% 0 mm
16:08 23.7 °C 13.2 °C 1016.8 hPa NNE 6.4 km/h 14.5 km/h 52% 0 mm
16:13 23.7 °C 13.2 °C 1016.8 hPa North 14.5 km/h 17.7 km/h 52% 0 mm
16:18 23.6 °C 12.6 °C 1016.8 hPa NW 12.9 km/h 19.3 km/h 50% 0 mm
16:23 23.7 °C 12.4 °C 1016.8 hPa NNE 8 km/h 11.3 km/h 49% 0 mm
16:28 23.8 °C 12.4 °C 1016.8 hPa North 6.4 km/h 16.1 km/h 49% 0 mm
16:33 23.8 °C 12.7 °C 1016.8 hPa NE 12.9 km/h 14.5 km/h 50% 0 mm
16:38 23.8 °C 13.1 °C 1016.8 hPa NNW 6.4 km/h 12.9 km/h 51% 0 mm
16:43 23.8 °C 11.8 °C 1016.8 hPa NNW 6.4 km/h 16.1 km/h 47% 0 mm
16:44 23.8 °C 12.1 °C 1016.8 hPa NNE 14.5 km/h 16.1 km/h 48% 0 mm
16:49 23.9 °C 12.6 °C 1016.5 hPa North 4.8 km/h 11.3 km/h 49% 0 mm
16:54 23.9 °C 13.2 °C 1016.5 hPa NNE 6.4 km/h 14.5 km/h 51% 0 mm
16:59 24 °C 12.7 °C 1016.5 hPa NNW 6.4 km/h 14.5 km/h 49% 0 mm
17:04 23.9 °C 12.3 °C 1016.5 hPa NW 14.5 km/h 19.3 km/h 48% 0 mm
17:09 23.9 °C 12.9 °C 1016.5 hPa NNE 8 km/h 17.7 km/h 50% 0 mm
17:14 23.9 °C 12.9 °C 1016.1 hPa North 4.8 km/h 11.3 km/h 50% 0 mm
17:19 24 °C 12.7 °C 1016.1 hPa North 11.3 km/h 17.7 km/h 49% 0 mm
17:25 24 °C 12.7 °C 1016.1 hPa NNW 4.8 km/h 12.9 km/h 49% 0 mm
17:30 24.2 °C 13.1 °C 1016.1 hPa North 11.3 km/h 16.1 km/h 50% 0 mm
17:35 24 °C 12 °C 1016.1 hPa NNE 8 km/h 12.9 km/h 47% 0 mm
17:40 23.9 °C 12.3 °C 1016.1 hPa NE 11.3 km/h 16.1 km/h 48% 0 mm
17:45 24.1 °C 12.1 °C 1016.1 hPa North 11.3 km/h 16.1 km/h 47% 0 mm
17:50 23.9 °C 11.9 °C 1016.1 hPa NNE 6.4 km/h 12.9 km/h 47% 0 mm
17:55 23.9 °C 12.3 °C 1016.1 hPa North 12.9 km/h 14.5 km/h 48% 0 mm
18:00 23.9 °C 11.6 °C 1016.1 hPa NNW 11.3 km/h 14.5 km/h 46% 0 mm
18:05 23.8 °C 11.2 °C 1016.1 hPa WNW 12.9 km/h 17.7 km/h 45% 0 mm
18:10 23.8 °C 11.5 °C 1016.1 hPa NNW 11.3 km/h 14.5 km/h 46% 0 mm
18:15 23.7 °C 11.4 °C 1016.1 hPa NNW 6.4 km/h 16.1 km/h 46% 0 mm
18:16 23.7 °C 11.4 °C 1016.1 hPa NNW 9.7 km/h 16.1 km/h 46% 0 mm
18:21 23.8 °C 12.7 °C 1016.1 hPa NW 6.4 km/h 8 km/h 50% 0 mm
18:26 23.8 °C 12.5 °C 1016.1 hPa NNW 9.7 km/h 12.9 km/h 49% 0 mm
18:31 23.7 °C 10.8 °C 1016.1 hPa NNW 8 km/h 14.5 km/h 44% 0 mm
18:36 23.6 °C 10.7 °C 1015.8 hPa North 8 km/h 11.3 km/h 44% 0 mm
18:41 23.6 °C 11.6 °C 1015.8 hPa North 1.6 km/h 11.3 km/h 47% 0 mm
18:46 23.6 °C 11.9 °C 1015.8 hPa NNE 4.8 km/h 6.4 km/h 48% 0 mm
18:51 23.6 °C 10.9 °C 1016.1 hPa NNE 6.4 km/h 9.7 km/h 45% 0 mm
18:56 23.4 °C 10.8 °C 1015.8 hPa NNE 3.2 km/h 8 km/h 45% 0 mm
19:01 23.3 °C 11.1 °C 1015.8 hPa NNE 8 km/h 8 km/h 46% 0 mm
19:06 23.3 °C 11 °C 1016.1 hPa NNE 6.4 km/h 11.3 km/h 46% 0 mm
19:11 23.2 °C 10.7 °C 1016.1 hPa NE 14.5 km/h 14.5 km/h 45% 0 mm
19:16 23.1 °C 11.2 °C 1016.1 hPa North 6.4 km/h 8 km/h 47% 0 mm
19:21 22.9 °C 11.4 °C 1016.1 hPa NNE 3.2 km/h 9.7 km/h 48% 0 mm
19:26 22.9 °C 11.3 °C 1016.1 hPa NE 4.8 km/h 9.7 km/h 48% 0 mm
19:31 22.8 °C 11.5 °C 1016.1 hPa NNE 3.2 km/h 4.8 km/h 49% 0 mm
19:36 22.7 °C 11.4 °C 1016.1 hPa NNE 1.6 km/h 3.2 km/h 49% 0 mm
19:42 22.6 °C 11.6 °C 1016.5 hPa NNE 1.6 km/h 4.8 km/h 50% 0 mm
19:47 22.3 °C 11.7 °C 1016.1 hPa NNE 3.2 km/h 4.8 km/h 51% 0 mm
19:52 21.9 °C 11.3 °C 1016.1 hPa NNE 4.8 km/h 6.4 km/h 51% 0 mm
19:57 21.6 °C 11.3 °C 1016.5 hPa NNE 1.6 km/h 4.8 km/h 52% 0 mm
20:02 21.3 °C 11.1 °C 1016.5 hPa NNE 1.6 km/h 4.8 km/h 52% 0 mm
20:07 21.1 °C 10.9 °C 1016.5 hPa NNE 6.4 km/h 8 km/h 52% 0 mm
20:12 20.9 °C 11 °C 1016.5 hPa North 3.2 km/h 3.2 km/h 53% 0 mm
20:17 20.7 °C 10.8 °C 1016.5 hPa NE 4.8 km/h 4.8 km/h 53% 0 mm
20:22 20.6 °C 10.7 °C 1016.5 hPa NNE 3.2 km/h 4.8 km/h 53% 0 mm
20:27 20.5 °C 10.3 °C 1016.5 hPa NE 1.6 km/h 4.8 km/h 52% 0 mm
20:32 20.4 °C 10.5 °C 1016.5 hPa NE 1.6 km/h 4.8 km/h 53% 0 mm
20:37 20.2 °C 10.3 °C 1016.5 hPa NNE 3.2 km/h 4.8 km/h 53% 0 mm
20:42 20.1 °C 10.4 °C 1016.5 hPa NNE 1.6 km/h 3.2 km/h 54% 0 mm
20:47 19.9 °C 10.4 °C 1016.5 hPa NNE 3.2 km/h 3.2 km/h 54% 0 mm
20:52 19.8 °C 10.3 °C 1016.5 hPa NNE 3.2 km/h 3.2 km/h 54% 0 mm
20:57 19.7 °C 10.2 °C 1016.8 hPa NNE 3.2 km/h 3.2 km/h 54% 0 mm
21:02 19.6 °C 10.1 °C 1016.8 hPa NNE 1.6 km/h 3.2 km/h 54% 0 mm
21:07 19.5 °C 10.2 °C 1016.8 hPa NNE 3.2 km/h 3.2 km/h 55% 0 mm
21:12 19.4 °C 10.2 °C 1016.8 hPa NE 3.2 km/h 4.8 km/h 55% 0 mm
21:17 19.4 °C 10.2 °C 1016.8 hPa NNE 3.2 km/h 4.8 km/h 55% 0 mm
21:22 19.3 °C 10.1 °C 1016.8 hPa NNE 3.2 km/h 4.8 km/h 55% 0 mm
21:27 19.2 °C 10.2 °C 1017.2 hPa NE 1.6 km/h 3.2 km/h 56% 0 mm
21:33 19 °C 10.3 °C 1017.2 hPa NE 3.2 km/h 3.2 km/h 57% 0 mm
21:38 18.9 °C 10.2 °C 1017.2 hPa NNE 3.2 km/h 4.8 km/h 57% 0 mm
21:43 18.8 °C 10.3 °C 1017.2 hPa NNE 1.6 km/h 4.8 km/h 58% 0 mm
21:48 18.7 °C 10.2 °C 1017.5 hPa North 1.6 km/h 3.2 km/h 58% 0 mm
21:53 18.6 °C 10.2 °C 1017.5 hPa NNE 1.6 km/h 3.2 km/h 58% 0 mm
21:58 18.5 °C 10.3 °C 1017.5 hPa NNE 1.6 km/h 4.8 km/h 59% 0 mm
22:03 18.4 °C 10.3 °C 1017.5 hPa NNE 3.2 km/h 4.8 km/h 59% 0 mm
22:08 18.4 °C 10.3 °C 1017.5 hPa NNE 3.2 km/h 4.8 km/h 59% 0 mm
22:13 18.4 °C 10.2 °C 1017.8 hPa NNE 3.2 km/h 4.8 km/h 59% 0 mm
22:18 18.3 °C 10.4 °C 1017.8 hPa NNE 3.2 km/h 4.8 km/h 60% 0 mm
22:23 18.2 °C 10.3 °C 1017.8 hPa NNE 3.2 km/h 4.8 km/h 60% 0 mm
22:28 18.2 °C 10.3 °C 1017.8 hPa NNE 3.2 km/h 4.8 km/h 60% 0 mm
22:33 18.1 °C 10.4 °C 1017.8 hPa NNE 3.2 km/h 4.8 km/h 61% 0 mm
22:38 17.9 °C 10.3 °C 1017.8 hPa NNE 3.2 km/h 4.8 km/h 61% 0 mm
22:43 17.8 °C 10.4 °C 1017.8 hPa NNE 3.2 km/h 3.2 km/h 62% 0 mm
22:48 17.7 °C 10.3 °C 1017.8 hPa NNE 1.6 km/h 4.8 km/h 62% 0 mm
22:53 17.6 °C 10.4 °C 1017.8 hPa NNE 1.6 km/h 6.4 km/h 63% 0 mm
22:58 17.4 °C 10.3 °C 1018.2 hPa NNE 3.2 km/h 4.8 km/h 63% 0 mm
23:03 17.3 °C 10.2 °C 1017.8 hPa North 3.2 km/h 3.2 km/h 63% 0 mm
23:08 17.3 °C 10.2 °C 1018.2 hPa NNE 3.2 km/h 3.2 km/h 63% 0 mm
23:13 17.2 °C 10.4 °C 1018.2 hPa NE 3.2 km/h 3.2 km/h 64% 0 mm
23:18 17.1 °C 10.3 °C 1018.2 hPa NNE 1.6 km/h 4.8 km/h 64% 0 mm
23:23 17 °C 10.2 °C 1018.2 hPa NE 3.2 km/h 4.8 km/h 64% 0 mm
23:28 16.9 °C 10.3 °C 1018.2 hPa NNE 1.6 km/h 3.2 km/h 65% 0 mm
23:33 16.9 °C 10.3 °C 1018.2 hPa NNE 4.8 km/h 6.4 km/h 65% 0 mm
23:38 16.8 °C 10.2 °C 1018.2 hPa NNE 3.2 km/h 6.4 km/h 65% 0 mm
23:43 16.7 °C 10.1 °C 1018.2 hPa NNE 3.2 km/h 6.4 km/h 65% 0 mm
23:48 16.7 °C 10.1 °C 1018.2 hPa NE 4.8 km/h 8 km/h 65% 0 mm
23:54 16.9 °C 10.1 °C 1018.2 hPa NE 6.4 km/h 9.7 km/h 64% 0 mm
23:59 16.8 °C 10 °C 1018.2 hPa ENE 6.4 km/h 9.7 km/h 64% 0 mm
Compliments of Weather Underground